createdAt,value
2019-06-10T00:04:22.221Z,94290.58
2019-06-10T00:14:31.599Z,94308.93
2019-06-10T00:24:42.293Z,94274.03
2019-06-10T00:34:55.464Z,94266.88
2019-06-10T00:45:07.576Z,94263.58
2019-06-10T00:55:14.961Z,94246.48
2019-06-10T01:05:24.127Z,94230.74
2019-06-10T01:15:35.600Z,94224.66
2019-06-10T01:25:51.432Z,94199.30
2019-06-10T01:35:57.534Z,94254.69
2019-06-10T01:46:11.306Z,94320.75
2019-06-10T01:56:21.709Z,94237.90
2019-06-10T02:06:31.768Z,94230.20
2019-06-10T02:16:41.440Z,94291.75
2019-06-10T02:26:51.672Z,94272.78
2019-06-10T02:36:57.096Z,94207.61
2019-06-10T02:47:09.549Z,94197.56
2019-06-10T02:57:29.575Z,94141.80
2019-06-10T03:07:35.418Z,94147.86
2019-06-10T03:17:45.679Z,94180.11
2019-06-10T03:27:56.394Z,94200.32
2019-06-10T03:38:16.168Z,94193.97
2019-06-10T03:48:28.507Z,94194.06
2019-06-10T03:58:44.708Z,94170.92
2019-06-10T04:08:59.922Z,94163.56
2019-06-10T04:19:06.854Z,94159.66
2019-06-10T04:29:13.677Z,94117.37
2019-06-10T04:39:33.634Z,94133.66
2019-06-10T04:49:37.350Z,94128.16
2019-06-10T04:59:42.852Z,94127.42
2019-06-10T05:09:47.923Z,94156.20
2019-06-10T05:20:02.321Z,94164.20
2019-06-10T05:30:12.833Z,94175.66
2019-06-10T05:40:26.527Z,94207.48
2019-06-10T05:50:42.672Z,94221.78
2019-06-10T06:00:53.968Z,94190.96
2019-06-10T06:11:12.538Z,94168.31
2019-06-10T06:21:30.070Z,94203.89
2019-06-10T06:31:36.220Z,94170.34
2019-06-10T06:41:42.692Z,94206.62
2019-06-10T06:51:56.099Z,94193.92
2019-06-10T07:02:02.811Z,94180.48
2019-06-10T07:12:12.931Z,94203.59
2019-06-10T07:22:23.352Z,94195.69
2019-06-10T07:32:25.683Z,94179.42
2019-06-10T07:42:34.217Z,94175.48
2019-06-10T07:52:48.934Z,94192.94
2019-06-10T08:02:58.752Z,94173.48
2019-06-10T08:13:05.979Z,94146.04
2019-06-10T08:23:24.557Z,94131.10
2019-06-10T08:33:33.051Z,94104.69
2019-06-10T08:43:34.582Z,94043.14
2019-06-10T08:53:37.417Z,93996.84
2019-06-10T09:03:43.572Z,93964.09
2019-06-10T09:13:48.039Z,93946.78
2019-06-10T09:23:59.576Z,93979.17
2019-06-10T09:34:03.998Z,93980.48
2019-06-10T09:44:12.922Z,93985.34
2019-06-10T09:54:15.516Z,93988.16
2019-06-10T10:04:17.863Z,93989.63
2019-06-10T10:14:33.711Z,93964.09
2019-06-10T10:24:44.313Z,93946.63
2019-06-10T10:34:57.222Z,93914.01
2019-06-10T10:45:16.539Z,93921.55
2019-06-10T10:55:33.369Z,93910.13
2019-06-10T11:05:40.663Z,93919.84
2019-06-10T11:15:54.718Z,93926.27
2019-06-10T11:26:06.019Z,93936.54
2019-06-10T11:36:13.545Z,93943.31
2019-06-10T11:46:21.796Z,93919.16
2019-06-10T11:56:34.179Z,93930.91
2019-06-10T12:06:45.301Z,93904.11
2019-06-10T12:27:07.764Z,93943.80
2019-06-10T12:37:18.269Z,93979.45
2019-06-10T12:47:33.279Z,93957.85
2019-06-10T12:57:47.777Z,93946.84
2019-06-10T13:07:57.599Z,93952.52
2019-06-10T13:18:18.940Z,93983.98
2019-06-10T14:07:02.406Z,115904.30
2019-06-10T14:26:06.177Z,115904.30
2019-06-10T18:11:42.985Z,115904.30
2019-06-10T18:37:17.669Z,115904.30
